Time;durP1;ratioP1;P1;durP2;ratioP2;P2;SDS_P1;SDS_P2;PMS_P1;PMS_P2;Temp;Humidity;BMP_temperature;BMP_pressure;BME280_temperature;BME280_humidity;BME280_pressure;Samples;Min_cycle;Max_cycle;Signal;HPM_P1;HPM_P2
2021/04/02 06:45:14;;;;;;;9.50;4.00;;;9.50;97.10;;;;;;5018899;28;20537;-88
2021/04/02 06:47:42;;;;;;;7.80;3.90;;;9.50;96.10;;;;;;5029076;28;20080;-88
2021/04/02 06:50:26;;;;;;;7.03;3.63;;;9.50;95.70;;;;;;5011996;28;20018;-89
2021/04/02 06:52:54;;;;;;;9.48;4.30;;;9.50;95.80;;;;;;5013283;28;20113;-89
2021/04/02 06:55:22;;;;;;;8.90;4.18;;;9.40;95.50;;;;;;5010875;28;20045;-89
2021/04/02 06:57:50;;;;;;;10.20;4.45;;;9.20;95.50;;;;;;5012905;28;20030;-88
2021/04/02 07:00:24;;;;;;;9.07;4.30;;;9.10;95.80;;;;;;5023999;28;20037;-88
2021/04/02 07:02:51;;;;;;;7.50;4.20;;;9.10;95.80;;;;;;5016502;28;20030;-87
2021/04/02 07:05:21;;;;;;;8.73;4.45;;;9.10;96.00;;;;;;5013440;28;20427;-88
2021/04/02 07:07:58;;;;;;;8.35;4.25;;;9.10;96.30;;;;;;5014767;28;20014;-88
2021/04/02 07:10:24;;;;;;;7.40;4.15;;;9.30;95.80;;;;;;5013690;28;20021;-88
2021/04/02 07:12:52;;;;;;;10.13;4.25;;;9.40;95.30;;;;;;5011095;28;20025;-89
2021/04/02 07:15:18;;;;;;;8.38;3.90;;;9.40;95.40;;;;;;5009873;28;20026;-87
2021/04/02 07:17:45;;;;;;;9.05;4.20;;;9.40;95.50;;;;;;5018673;28;20044;-88
2021/04/02 07:20:12;;;;;;;10.48;4.68;;;9.50;95.20;;;;;;5013425;28;20065;-88
2021/04/02 07:22:42;;;;;;;8.48;3.83;;;9.50;95.10;;;;;;5015420;28;20029;-88
2021/04/02 07:25:09;;;;;;;13.70;5.50;;;9.60;95.10;;;;;;5010458;28;20540;-90
2021/04/02 07:27:36;;;;;;;8.35;4.28;;;9.70;94.90;;;;;;5012311;28;20049;-88
2021/04/02 07:30:08;;;;;;;9.48;3.95;;;9.80;94.20;;;;;;5014018;28;20025;-88
2021/04/02 07:32:36;;;;;;;;;;;9.60;94.60;;;;;;5011856;28;20018;-88
2021/04/02 07:35:02;;;;;;;9.68;4.90;;;9.60;94.90;;;;;;5014804;28;19913;-88
2021/04/02 07:37:37;;;;;;;8.13;4.93;;;9.60;94.70;;;;;;5009609;28;20513;-88
2021/04/02 07:40:08;;;;;;;9.60;4.85;;;9.70;94.50;;;;;;5000519;28;20026;-88
2021/04/02 07:42:34;;;;;;;8.77;4.70;;;9.70;94.60;;;;;;4997930;28;20035;-88
2021/04/02 07:45:00;;;;;;;9.00;4.22;;;9.90;94.40;;;;;;5003389;28;20034;-86
2021/04/02 07:47:26;;;;;;;8.30;4.20;;;9.90;94.40;;;;;;5000490;28;20036;-86
2021/04/02 07:49:53;;;;;;;11.32;4.75;;;9.90;94.10;;;;;;5005844;28;20026;-87
2021/04/02 07:52:39;;;;;;;12.95;4.70;;;9.90;93.90;;;;;;5013724;28;20026;-87
2021/04/02 07:55:10;;;;;;;8.32;4.90;;;9.80;94.20;;;;;;5009180;28;20033;-88
2021/04/02 07:58:06;;;;;;;9.15;5.05;;;9.70;94.30;;;;;;5003865;28;20044;-88
2021/04/02 08:00:34;;;;;;;9.27;5.35;;;9.70;94.40;;;;;;5007791;28;20034;-88
2021/04/02 08:03:10;;;;;;;9.85;4.55;;;9.80;94.30;;;;;;5009451;28;20037;-89
2021/04/02 08:05:37;;;;;;;8.75;5.20;;;9.90;94.50;;;;;;5008061;28;20394;-89
2021/04/02 08:08:07;;;;;;;9.25;5.32;;;10.20;93.90;;;;;;5007144;28;20014;-88
2021/04/02 08:10:32;;;;;;;8.90;5.00;;;10.30;93.80;;;;;;5007128;28;20371;-89
2021/04/02 08:12:58;;;;;;;12.05;5.40;;;10.30;93.30;;;;;;5011389;28;20024;-88
2021/04/02 08:15:24;;;;;;;8.75;5.03;;;10.50;93.20;;;;;;5023536;28;20026;-88
2021/04/02 08:17:50;;;;;;;9.80;5.15;;;10.60;93.20;;;;;;5006178;28;20474;-88
2021/04/02 08:20:19;;;;;;;10.98;5.72;;;10.70;92.70;;;;;;5010525;28;20037;-88
2021/04/02 08:22:47;;;;;;;12.02;6.10;;;10.80;92.50;;;;;;5013667;28;20022;-88
2021/04/02 08:25:15;;;;;;;12.48;5.47;;;10.70;92.50;;;;;;5003295;28;20607;-89
2021/04/02 08:27:44;;;;;;;9.25;5.70;;;10.80;92.40;;;;;;5006062;28;20080;-89
2021/04/02 08:30:13;;;;;;;8.90;5.72;;;10.80;92.20;;;;;;5000243;28;20125;-88
2021/04/02 08:32:41;;;;;;;10.80;6.07;;;10.80;92.10;;;;;;5011025;28;20576;-89
2021/04/02 08:35:09;;;;;;;10.05;6.10;;;10.60;92.50;;;;;;5014721;28;20013;-89
2021/04/02 08:37:36;;;;;;;9.32;6.15;;;10.70;92.40;;;;;;5018155;28;20026;-89
2021/04/02 08:40:08;;;;;;;10.68;6.20;;;10.90;92.20;;;;;;5007652;28;20026;-88
2021/04/02 08:42:34;;;;;;;10.50;6.25;;;11.10;91.80;;;;;;5005644;28;20109;-88
2021/04/02 08:45:07;;;;;;;10.82;6.25;;;11.20;91.60;;;;;;4997613;28;20117;-89
2021/04/02 08:47:36;;;;;;;10.60;6.10;;;11.30;91.70;;;;;;5019968;28;20511;-87
2021/04/02 08:50:03;;;;;;;9.38;6.00;;;11.60;91.10;;;;;;5009617;28;20037;-89
2021/04/02 08:52:30;;;;;;;11.93;6.82;;;11.70;91.00;;;;;;5008845;28;20046;-89
2021/04/02 08:55:04;;;;;;;10.90;6.20;;;11.90;90.50;;;;;;5011249;28;20029;-89
2021/04/02 08:57:33;;;;;;;11.93;7.13;;;12.00;90.30;;;;;;5006787;28;20113;-89
2021/04/02 09:00:09;;;;;;;10.00;6.53;;;11.90;89.60;;;;;;5007889;28;20022;-88
2021/04/02 09:02:36;;;;;;;10.07;6.65;;;11.90;89.20;;;;;;5002964;28;20054;-88
2021/04/02 09:05:06;;;;;;;11.77;6.70;;;12.00;90.20;;;;;;5012210;28;20026;-90
2021/04/02 09:07:38;;;;;;;10.27;6.88;;;11.90;89.80;;;;;;5020190;28;20034;-89
2021/04/02 09:10:16;;;;;;;12.35;6.75;;;11.80;90.00;;;;;;4998583;28;20022;-90
2021/04/02 09:12:49;;;;;;;11.82;7.05;;;12.00;89.80;;;;;;5008843;28;20664;-90
2021/04/02 09:15:33;;;;;;;13.82;7.20;;;12.00;89.50;;;;;;5012416;28;20026;-90
2021/04/02 09:18:17;;;;;;;12.10;6.97;;;12.20;88.90;;;;;;5011192;28;20629;-89
2021/04/02 09:20:44;;;;;;;13.70;6.70;;;12.10;88.90;;;;;;5027100;28;20017;-87
2021/04/02 09:23:11;;;;;;;10.30;6.93;;;12.30;88.50;;;;;;5006565;28;20041;-90
2021/04/02 09:25:42;;;;;;;9.77;6.60;;;12.30;88.00;;;;;;5014690;28;20513;-90
2021/04/02 09:28:08;;;;;;;10.90;6.50;;;12.50;87.90;;;;;;5012379;28;20164;-90
2021/04/02 09:30:34;;;;;;;10.52;7.10;;;12.70;86.80;;;;;;5003341;28;20089;-90
2021/04/02 09:33:00;;;;;;;12.02;7.30;;;12.50;86.10;;;;;;5003558;28;20045;-89
2021/04/02 09:35:25;;;;;;;14.98;7.22;;;12.60;86.40;;;;;;4998950;28;20029;-90
2021/04/02 09:37:51;;;;;;;10.73;7.15;;;12.50;86.50;;;;;;5001065;28;20118;-91
2021/04/02 09:40:18;;;;;;;12.48;7.18;;;12.40;86.60;;;;;;5004901;28;20044;-90
2021/04/02 09:42:48;;;;;;;11.32;7.05;;;12.60;86.80;;;;;;5003074;28;20049;-90
2021/04/02 09:45:15;;;;;;;12.68;7.18;;;12.80;86.30;;;;;;5005606;28;20036;-91
2021/04/02 09:47:48;;;;;;;12.05;7.05;;;13.30;84.40;;;;;;5002587;28;20029;-90
2021/04/02 09:50:17;;;;;;;9.38;6.55;;;13.30;84.00;;;;;;5001989;28;20277;-91
2021/04/02 09:52:44;;;;;;;9.90;6.40;;;13.10;83.70;;;;;;5003351;28;20104;-90
2021/04/02 09:55:10;;;;;;;11.68;6.95;;;13.00;82.90;;;;;;5000923;28;20109;-91
2021/04/02 09:57:36;;;;;;;11.80;7.50;;;12.60;84.60;;;;;;4999409;28;20061;-90
2021/04/02 10:00:05;;;;;;;12.65;7.45;;;12.80;84.20;;;;;;5010870;28;20029;-88
2021/04/02 10:02:31;;;;;;;11.77;7.03;;;12.70;84.20;;;;;;5008762;28;20058;-90
2021/04/02 10:04:57;;;;;;;10.73;6.70;;;12.50;84.80;;;;;;5007400;28;20045;-91
2021/04/02 10:07:22;;;;;;;11.73;7.05;;;12.30;84.20;;;;;;5029066;28;20011;-89
2021/04/02 10:09:48;;;;;;;13.30;6.63;;;11.90;83.90;;;;;;5039285;28;20042;-91
2021/04/02 10:12:14;;;;;;;11.98;7.03;;;11.80;85.50;;;;;;5009266;28;20376;-89
2021/04/02 10:14:40;;;;;;;14.52;7.25;;;12.20;86.10;;;;;;5033809;28;20030;-90
2021/04/02 10:17:11;;;;;;;10.77;6.70;;;12.70;83.80;;;;;;5016766;28;20073;-91
2021/04/02 10:19:37;;;;;;;11.40;6.47;;;13.00;82.70;;;;;;5013922;28;20080;-90
2021/04/02 10:22:04;;;;;;;12.63;6.68;;;13.00;80.50;;;;;;5016488;28;20022;-90
2021/04/02 10:24:30;;;;;;;9.80;6.63;;;13.00;80.60;;;;;;5010385;28;20034;-90
2021/04/02 10:26:58;;;;;;;10.73;6.68;;;13.10;81.00;;;;;;5005289;28;20108;-90
2021/04/02 10:29:24;;;;;;;11.25;6.53;;;13.30;79.30;;;;;;5019134;28;20036;-89
2021/04/02 10:31:49;;;;;;;11.63;6.20;;;13.70;78.20;;;;;;5017161;28;20109;-88
2021/04/02 10:34:15;;;;;;;11.45;6.68;;;13.80;74.40;;;;;;5018755;28;20112;-88
2021/04/02 10:36:41;;;;;;;9.57;6.35;;;13.60;74.50;;;;;;5020315;28;20034;-89
2021/04/02 10:39:06;;;;;;;14.52;6.60;;;13.40;75.70;;;;;;5012266;28;20033;-89
2021/04/02 10:41:39;;;;;;;13.40;5.93;;;13.30;75.30;;;;;;5025061;28;20105;-89
2021/04/02 10:44:05;;;;;;;10.55;5.93;;;13.50;74.60;;;;;;5013081;28;20034;-90
2021/04/02 10:46:30;;;;;;;10.45;6.80;;;13.90;74.50;;;;;;5016512;28;20502;-88
2021/04/02 10:48:56;;;;;;;11.80;6.47;;;13.60;74.50;;;;;;5007430;28;20065;-89
2021/04/02 10:51:22;;;;;;;10.50;6.57;;;13.80;74.40;;;;;;5015026;28;20026;-89
2021/04/02 10:53:49;;;;;;;10.10;6.55;;;13.90;74.50;;;;;;5019129;28;20022;-89
2021/04/02 10:56:14;;;;;;;10.23;6.13;;;13.70;74.60;;;;;;5008085;28;20033;-89
2021/04/02 10:58:41;;;;;;;11.98;6.45;;;13.90;74.80;;;;;;5007942;28;20034;-88
2021/04/02 11:01:07;;;;;;;10.00;6.25;;;14.20;73.30;;;;;;5009452;28;20074;-89
2021/04/02 11:03:33;;;;;;;10.57;6.15;;;14.40;72.70;;;;;;5006497;28;20459;-89
2021/04/02 11:05:59;;;;;;;10.10;6.68;;;14.30;71.70;;;;;;5012656;28;20132;-89
2021/04/02 11:08:24;;;;;;;12.27;7.00;;;14.50;71.40;;;;;;5008864;28;20486;-89
2021/04/02 11:10:50;;;;;;;10.63;6.80;;;14.20;71.00;;;;;;5024123;28;20026;-88
2021/04/02 11:13:16;;;;;;;10.20;6.13;;;14.10;71.50;;;;;;5013528;28;20080;-89
2021/04/02 11:15:41;;;;;;;9.25;6.80;;;14.30;71.20;;;;;;5010777;28;20033;-89
2021/04/02 11:18:07;;;;;;;10.98;6.10;;;14.20;71.10;;;;;;5018490;28;20060;-89
2021/04/02 11:20:33;;;;;;;10.73;6.57;;;14.20;71.10;;;;;;5016443;28;20018;-89
2021/04/02 11:22:59;;;;;;;9.43;6.50;;;14.00;71.00;;;;;;5021226;28;20513;-88
2021/04/02 11:25:25;;;;;;;10.85;6.28;;;13.90;70.00;;;;;;5023052;28;20037;-88
2021/04/02 11:27:51;;;;;;;10.77;6.50;;;14.00;69.00;;;;;;5013415;28;20098;-89
2021/04/02 11:30:20;;;;;;;11.05;6.88;;;14.10;68.50;;;;;;5014162;28;20022;-89
2021/04/02 11:32:46;;;;;;;17.52;6.85;;;14.00;68.90;;;;;;5015632;28;20394;-89
2021/04/02 11:35:13;;;;;;;9.70;6.30;;;14.40;67.90;;;;;;5012960;28;20509;-88
2021/04/02 11:37:40;;;;;;;9.15;6.15;;;14.40;67.20;;;;;;5008487;28;20040;-87
2021/04/02 11:40:09;;;;;;;11.63;6.63;;;14.40;67.60;;;;;;5011790;28;20022;-89
2021/04/02 11:42:34;;;;;;;9.48;6.38;;;14.70;66.60;;;;;;5015820;28;20037;-89
2021/04/02 11:45:01;;;;;;;9.48;6.13;;;14.70;66.50;;;;;;5015931;28;20109;-88
2021/04/02 11:47:26;;;;;;;8.73;6.03;;;14.70;64.60;;;;;;5010895;28;20038;-88
2021/04/02 11:49:52;;;;;;;8.60;6.15;;;14.70;64.20;;;;;;5016982;28;20025;-88
2021/04/02 11:52:17;;;;;;;8.20;5.68;;;14.70;64.60;;;;;;5009838;28;20032;-88
2021/04/02 13:09:48;;;;;;;6.43;3.60;;;16.10;55.90;;;;;;5037413;28;20390;-94
2021/04/02 13:12:27;;;;;;;6.60;3.35;;;16.60;55.00;;;;;;5036897;28;20024;-95
2021/04/02 13:15:20;;;;;;;6.38;3.42;;;16.80;53.60;;;;;;5030757;28;20029;-92
2021/04/02 13:17:52;;;;;;;5.45;3.67;;;16.80;52.90;;;;;;5033366;28;20075;-93
2021/04/02 13:23:23;;;;;;;5.18;3.15;;;17.20;52.40;;;;;;5027680;23;20034;-94
2021/04/02 13:25:53;;;;;;;5.57;3.13;;;17.40;51.10;;;;;;5034453;28;20037;-94
2021/04/02 13:28:26;;;;;;;5.35;2.90;;;17.40;49.60;;;;;;5023840;28;20026;-94
2021/04/02 13:30:58;;;;;;;5.10;3.30;;;17.50;50.10;;;;;;5021495;28;20037;-93
2021/04/02 13:33:51;;;;;;;7.03;3.25;;;17.20;50.80;;;;;;5023195;28;20029;-93
2021/04/02 13:36:24;;;;;;;4.93;3.05;;;17.20;51.20;;;;;;5010578;28;20026;-93
2021/04/02 13:39:01;;;;;;;5.65;3.25;;;17.60;50.60;;;;;;5017770;28;20029;-93
2021/04/02 13:41:49;;;;;;;5.47;3.30;;;17.60;49.30;;;;;;5016839;28;20098;-94
2021/04/02 13:44:22;;;;;;;4.53;2.97;;;17.90;49.00;;;;;;5016699;28;20032;-94
2021/04/02 13:47:01;;;;;;;5.32;3.08;;;17.90;48.20;;;;;;5041566;28;20038;-93
2021/04/02 14:10:24;;;;;;;4.90;3.10;;;18.00;48.20;;;;;;5031181;28;20045;-92
2021/04/02 14:12:50;;;;;;;5.50;3.00;;;18.00;48.00;;;;;;5011441;28;20105;-91
2021/04/02 14:15:19;;;;;;;5.05;2.92;;;18.20;48.20;;;;;;5005426;28;20472;-92
2021/04/02 14:17:45;;;;;;;6.75;3.30;;;18.30;46.60;;;;;;5009935;28;20029;-93
2021/04/02 14:20:15;;;;;;;5.07;3.20;;;18.20;47.00;;;;;;5010313;28;20089;-91
2021/04/02 14:22:40;;;;;;;8.43;3.25;;;17.80;48.00;;;;;;4997760;28;20088;-92
2021/04/02 14:25:08;;;;;;;4.72;3.35;;;18.00;48.20;;;;;;5012405;28;20437;-92
2021/04/02 14:27:34;;;;;;;5.40;3.58;;;18.20;48.10;;;;;;5011084;28;20022;-94
2021/04/02 14:30:00;;;;;;;4.75;2.60;;;18.40;47.60;;;;;;5014394;28;20017;-91
2021/04/02 14:32:26;;;;;;;6.20;3.15;;;18.40;48.10;;;;;;5011434;28;20117;-92
2021/04/02 14:34:51;;;;;;;5.55;2.55;;;18.70;47.40;;;;;;5018531;28;20025;-92
2021/04/02 14:37:17;;;;;;;5.45;3.08;;;19.00;47.30;;;;;;5014800;28;20425;-92
2021/04/02 14:39:42;;;;;;;5.07;2.88;;;18.90;46.80;;;;;;5023695;28;20029;-91
2021/04/02 14:42:08;;;;;;;5.10;2.58;;;18.60;46.30;;;;;;5032981;28;20014;-93
2021/04/02 14:44:34;;;;;;;5.00;3.08;;;18.90;45.90;;;;;;5032447;28;20046;-92
2021/04/02 14:46:59;;;;;;;8.00;5.45;;;19.30;45.50;;;;;;5034164;28;20041;-92
2021/04/02 14:49:25;;;;;;;5.32;3.03;;;19.50;45.40;;;;;;5029367;28;20022;-92
2021/04/02 17:04:17;;;;;;;8.18;5.00;;;12.80;64.20;;;;;;5032080;28;20049;-92
2021/04/02 17:06:43;;;;;;;8.18;4.60;;;12.70;64.50;;;;;;5031802;28;20029;-92
2021/04/02 17:09:09;;;;;;;7.32;4.50;;;12.80;64.90;;;;;;5030342;28;20014;-91
2021/04/02 17:11:35;;;;;;;7.28;4.75;;;12.60;65.10;;;;;;5030702;28;20030;-94
2021/04/02 17:14:10;;;;;;;7.30;4.40;;;12.60;65.50;;;;;;5016446;28;20344;-93
2021/04/02 17:16:43;;;;;;;8.95;5.13;;;12.50;66.00;;;;;;5020398;28;20414;-94
2021/04/02 17:52:49;;;;;;;8.13;4.00;;;11.50;69.20;;;;;;1084440;23;20311;-88
2021/04/02 17:55:18;;;;;;;7.00;3.90;;;11.50;69.50;;;;;;5034777;28;20045;-93
2021/04/02 17:57:50;;;;;;;6.28;3.92;;;11.40;69.00;;;;;;5035893;28;20027;-93
2021/04/02 18:00:17;;;;;;;6.47;3.55;;;11.10;68.50;;;;;;5028392;28;20041;-94
2021/04/02 18:02:43;;;;;;;7.95;3.28;;;11.20;68.90;;;;;;5037533;28;20029;-94
2021/04/02 18:43:59;;;;;;;4.55;2.40;;;10.30;64.00;;;;;;5029590;28;20045;-94
2021/04/02 18:56:46;;;;;;;7.00;2.72;;;10.20;64.50;;;;;;5042280;28;20030;-95
2021/04/02 21:16:08;;;;;;;11.10;4.57;;;8.10;80.60;;;;;;1469322;23;20327;-91
2021/04/02 21:18:59;;;;;;;;;;;;;;;;;;;;;
2021/04/02 21:21:35;;;;;;;13.52;5.65;;;8.00;82.80;;;;;;5014248;28;20010;-93
2021/04/02 21:24:06;;;;;;;11.98;5.45;;;8.00;83.90;;;;;;5016341;28;20006;-93
2021/04/02 21:26:34;;;;;;;12.20;6.47;;;7.90;85.50;;;;;;5000908;28;20098;-93
2021/04/02 21:29:05;;;;;;;10.93;5.95;;;7.80;86.30;;;;;;5011214;28;20025;-94
2021/04/02 21:32:01;;;;;;;;;;;;;;;;;;;;;
2021/04/02 21:35:02;;;;;;;;;;;;;;;;;;;;;
2021/04/02 21:38:13;;;;;;;12.60;6.22;;;7.70;90.00;;;;;;5015784;28;20014;-95
2021/04/02 21:41:23;;;;;;;12.32;6.03;;;7.60;90.10;;;;;;4997896;28;20038;-93
2021/04/02 21:44:09;;;;;;;12.02;5.38;;;7.60;90.60;;;;;;5003026;28;20066;-94
2021/04/02 21:46:42;;;;;;;15.90;6.60;;;7.60;91.20;;;;;;4999249;28;20060;-93
2021/04/02 21:49:15;;;;;;;11.02;5.78;;;7.50;91.20;;;;;;5005631;28;20010;-92
2021/04/02 21:52:05;;;;;;;13.35;5.70;;;7.60;91.50;;;;;;5006263;28;20041;-92
2021/04/02 21:54:42;;;;;;;15.00;6.40;;;7.50;92.00;;;;;;5000126;28;20031;-93
2021/04/02 21:57:15;;;;;;;11.82;6.13;;;7.40;92.10;;;;;;5013547;28;20022;-91
2021/04/02 21:59:52;;;;;;;12.02;6.25;;;7.50;92.60;;;;;;5010869;28;20042;-93
2021/04/02 22:02:30;;;;;;;12.52;5.80;;;7.40;92.70;;;;;;5010450;28;20078;-91
2021/04/02 22:05:04;;;;;;;10.48;5.53;;;7.40;93.00;;;;;;5015167;28;20007;-92
2021/04/02 22:51:26;;;;;;;7.93;3.83;;;7.10;94.00;;;;;;5031421;28;20060;-88
2021/04/02 22:53:53;;;;;;;9.90;4.20;;;7.10;93.60;;;;;;5025172;28;20013;-89
2021/04/02 22:56:19;;;;;;;9.32;3.33;;;7.00;93.50;;;;;;5032073;28;20229;-88
2021/04/02 22:58:44;;;;;;;8.60;3.60;;;6.90;93.60;;;;;;5031339;28;20036;-88
2021/04/02 23:01:12;;;;;;;7.38;3.60;;;6.90;93.70;;;;;;5032085;28;20068;-88
2021/04/02 23:03:38;;;;;;;9.67;3.20;;;6.90;93.60;;;;;;5029359;28;20037;-88
2021/04/02 23:06:06;;;;;;;8.07;3.37;;;6.80;93.80;;;;;;5032702;28;20120;-88
2021/04/02 23:08:33;;;;;;;7.57;3.40;;;6.80;93.90;;;;;;5032943;28;20049;-88
2021/04/02 23:11:01;;;;;;;13.43;3.70;;;6.70;94.20;;;;;;5032327;28;20024;-89
2021/04/02 23:13:26;;;;;;;8.00;3.28;;;6.70;94.30;;;;;;5031372;28;20085;-87
2021/04/02 23:15:52;;;;;;;10.15;3.50;;;6.70;94.50;;;;;;5031785;28;20087;-88
2021/04/02 23:18:18;;;;;;;12.18;4.35;;;6.70;94.70;;;;;;5035841;28;20446;-88
2021/04/02 23:20:44;;;;;;;12.60;3.70;;;6.70;94.30;;;;;;5036492;28;20025;-89
2021/04/02 23:23:10;;;;;;;7.90;3.40;;;6.60;94.20;;;;;;5037429;28;20021;-88
2021/04/02 23:25:36;;;;;;;8.60;3.73;;;6.60;94.50;;;;;;5036550;28;20025;-88
2021/04/02 23:28:02;;;;;;;8.53;3.13;;;6.50;94.80;;;;;;5035902;28;20025;-89
2021/04/02 23:30:32;;;;;;;9.95;3.08;;;6.40;95.00;;;;;;5029848;28;20022;-88
2021/04/02 23:33:09;;;;;;;10.57;3.57;;;6.40;95.40;;;;;;5035083;28;20052;-89
2021/04/02 23:35:41;;;;;;;9.00;3.83;;;6.30;95.30;;;;;;5035454;28;20097;-89
2021/04/02 23:38:10;;;;;;;7.57;3.28;;;6.40;95.30;;;;;;5032667;28;20159;-89
2021/04/02 23:40:50;;;;;;;9.70;4.03;;;6.30;95.50;;;;;;5036229;28;20087;-88
2021/04/02 23:43:18;;;;;;;9.00;4.07;;;6.30;95.20;;;;;;5032372;28;20108;-89
2021/04/02 23:45:44;;;;;;;9.37;3.33;;;6.30;94.90;;;;;;5033631;28;20385;-88
2021/04/02 23:48:11;;;;;;;12.50;4.00;;;6.10;94.80;;;;;;5034687;28;20105;-88
2021/04/02 23:50:39;;;;;;;8.90;3.60;;;6.00;95.10;;;;;;5035010;28;20048;-88
2021/04/02 23:53:06;;;;;;;12.50;3.83;;;6.10;95.60;;;;;;5035675;28;20030;-88
2021/04/02 23:55:32;;;;;;;10.10;4.20;;;6.00;95.80;;;;;;5035449;28;20080;-88
2021/04/02 23:57:58;;;;;;;12.03;4.37;;;6.10;95.30;;;;;;5035436;28;20033;-88
